Date,TemperatureHighF,TemperatureAvgF,TemperatureLowF,DewpointHighF,DewpointAvgF,DewpointLowF,HumidityHigh,HumidityAvg,HumidityLow,PressureMaxIn,PressureMinIn,WindSpeedMaxMPH,WindSpeedAvgMPH,GustSpeedMaxMPH,PrecipitationSumIn
2013-1-1,29.5,26.7,25.9,28.4,25.8,24.1,97,96,92,30.21,30.03,12,5,13,0.00
2013-1-2,36.9,31.4,27.1,31.5,28.8,26.4,97,90,78,30.39,30.06,14,3,14,0.00
2013-1-3,43.2,38.6,30.2,36.0,30.4,25.5,86,72,57,30.47,30.27,18,3,18,0.00
2013-1-4,49.8,45.9,41.9,40.1,36.2,31.6,79,69,51,30.27,30.03,33,6,33,0.00
2013-1-5,54.3,45.9,37.6,44.9,33.0,20.0,93,62,40,30.12,29.91,33,11,33,0.00
2013-1-6,38.3,36.1,33.3,35.6,24.5,19.1,91,64,49,30.15,29.94,23,4,23,0.00
2013-1-7,38.3,33.3,27.0,32.9,22.2,14.6,89,64,45,30.39,30.00,11,2,11,0.00
2013-1-8,32.5,27.1,21.2,25.1,18.3,14.0,92,70,49,30.39,30.18,10,1,10,0.00
2013-1-9,29.5,27.3,23.9,28.0,25.6,22.5,96,93,88,30.21,30.09,12,3,12,0.00
2013-1-10,32.4,27.7,23.5,31.6,26.9,22.8,97,97,96,30.09,29.74,12,3,12,0.00
2013-1-11,38.5,33.3,28.9,37.2,28.3,19.4,97,83,62,29.97,29.71,23,7,23,0.00
2013-1-12,38.3,30.1,26.1,23.6,19.9,16.1,80,66,46,30.09,29.97,15,4,15,0.00
2013-1-13,29.7,28.2,26.1,26.5,24.7,23.1,93,87,79,30.09,30.06,19,4,19,0.00
2013-1-14,34.9,30.6,25.5,32.9,28.7,22.1,97,93,84,30.06,29.88,19,4,19,0.00
2013-1-15,36.5,34.3,32.5,35.7,33.5,31.8,97,97,97,29.88,29.71,7,3,7,0.00
2013-1-16,41.4,35.5,31.8,40.6,34.2,29.8,97,95,84,29.71,29.56,15,4,15,0.00
2013-1-17,36.7,34.9,33.4,35.0,33.7,32.5,97,95,92,29.68,29.53,10,3,10,0.00
2013-1-18,35.8,33.7,29.5,33.6,30.3,26.8,97,88,70,29.65,29.50,13,6,13,0.04
2013-1-19,31.3,28.1,26.2,28.9,24.1,19.5,97,85,70,29.62,29.47,8,1,8,0.00
2013-1-20,34.7,31.0,27.5,33.9,29.4,23.0,97,94,83,29.59,29.50,8,1,8,0.04
2013-1-21,39.0,35.9,33.8,38.1,35.2,33.0,97,97,97,29.50,29.41,8,4,8,0.12
2013-1-22,37.2,33.5,29.5,36.5,30.9,24.3,97,90,79,29.62,29.41,19,4,19,0.08
2013-1-23,34.7,30.3,27.7,28.2,25.4,22.5,90,82,75,29.83,29.62,15,4,15,0.00
2013-1-24,32.4,30.2,28.8,31.6,27.7,23.1,97,91,73,29.83,29.71,12,4,12,0.00
2013-1-25,33.3,30.0,27.0,24.8,18.6,13.1,82,63,52,29.94,29.74,16,6,16,0.00
2013-1-26,32.0,28.0,24.1,19.3,16.3,13.2,77,61,55,30.03,29.91,12,4,12,0.00
2013-1-27,33.1,26.4,19.6,26.0,19.4,15.4,86,75,58,30.03,29.85,11,2,11,0.00
2013-1-28,33.3,31.0,29.3,30.7,28.4,25.7,94,90,86,30.12,29.85,11,3,11,0.04
2013-1-29,37.9,32.3,24.4,35.5,29.3,22.6,96,89,79,30.12,29.97,8,2,8,0.00
2013-1-30,43.9,40.2,36.7,43.1,39.4,35.4,97,97,95,29.97,29.80,10,3,10,0.00
2013-1-31,55.2,47.1,40.5,46.6,32.4,24.1,96,58,39,30.00,29.77,33,8,34,0.00
2013-2-1,50.9,46.2,40.5,34.7,31.2,26.6,69,56,42,29.85,29.50,26,6,27,0.00
2013-2-2,44.1,41.9,39.7,42.0,37.2,31.6,97,84,67,29.50,29.26,18,4,18,0.47
2013-2-3,41.2,36.4,33.1,33.7,28.1,19.5,85,72,55,29.94,29.44,23,9,23,0.04
2013-2-4,38.8,34.5,29.7,33.4,26.8,18.6,91,74,57,29.94,29.85,8,2,8,0.00
2013-2-5,42.4,38.2,34.7,35.4,33.5,32.1,92,83,72,29.91,29.59,10,4,10,0.00
2013-2-6,38.7,36.8,33.4,37.6,35.0,32.7,97,93,84,29.59,29.44,17,3,17,0.55
2013-2-7,36.0,33.6,29.3,34.7,30.9,23.2,97,90,74,29.74,29.41,16,4,17,0.35
2013-2-8,40.8,31.5,25.0,28.2,23.1,20.8,87,72,51,29.83,29.71,13,3,13,0.00
2013-2-9,33.4,28.6,23.5,27.5,23.3,19.1,92,81,56,29.91,29.83,10,4,10,0.00
2013-2-10,32.2,29.7,27.7,29.4,26.9,24.2,94,89,83,29.91,29.83,12,4,12,0.00
2013-2-11,31.1,26.5,23.7,27.8,23.9,20.2,97,90,72,29.94,29.85,18,5,18,0.00
2013-2-12,36.3,31.8,23.7,32.5,25.8,21.5,91,79,66,29.88,29.80,24,6,24,0.35
2013-2-13,42.1,38.2,35.1,38.2,33.7,31.5,93,84,71,30.00,29.85,10,4,10,0.16
2013-2-14,39.2,36.3,34.0,37.6,34.5,31.5,97,93,84,30.12,30.00,8,3,8,0.16
2013-2-15,46.6,38.9,35.1,42.5,36.2,33.7,97,90,75,30.09,30.03,7,2,7,0.00
2013-2-16,49.8,38.8,31.5,42.6,31.6,25.8,97,77,50,30.15,30.09,12,3,13,0.16
2013-2-17,36.1,34.2,31.1,33.0,30.8,27.6,96,87,78,30.18,30.15,7,2,7,0.16
2013-2-18,40.1,34.6,30.9,31.3,29.0,27.1,90,80,69,30.18,30.09,10,2,10,0.16
2013-2-19,40.5,34.4,30.4,33.1,28.4,21.7,93,80,48,30.09,29.83,10,2,10,0.16
2013-2-20,42.4,35.4,29.7,33.2,26.0,20.8,93,70,48,30.03,29.83,20,5,20,0.16
2013-2-21,37.9,31.8,24.3,27.5,19.5,11.1,85,63,35,30.06,29.94,11,3,11,0.00
2013-2-22,34.0,31.1,27.9,33.2,28.0,18.8,97,89,62,29.94,29.74,12,4,12,0.20
2013-2-23,42.1,37.4,33.6,40.8,36.2,32.9,97,96,90,29.83,29.68,29,7,31,1.97
2013-2-24,45.9,43.4,40.6,43.9,40.7,38.4,97,90,81,29.91,29.77,20,8,21,1.26
2013-2-25,49.3,46.3,44.2,44.0,41.8,39.8,93,84,75,30.12,29.91,18,6,18,0.00
2013-2-26,55.4,48.3,43.2,43.5,41.7,39.3,92,78,62,30.12,30.06,15,4,15,0.00
2013-2-27,51.3,45.4,39.6,42.4,37.9,33.3,92,76,57,30.30,30.12,12,3,12,0.00
2013-2-28,52.2,43.9,37.0,39.9,33.9,30.0,91,70,46,30.30,30.15,8,1,8,0.00
2013-3-1,41.2,37.6,32.5,39.1,32.6,27.7,97,83,68,30.15,29.97,21,5,21,0.00
2013-3-2,49.3,40.4,33.1,29.0,23.6,20.9,71,52,37,30.15,30.03,16,4,16,0.00
2013-3-3,49.3,39.4,29.8,29.8,24.6,22.7,79,57,37,30.12,30.00,21,5,21,0.00
2013-3-4,48.2,39.1,28.6,30.8,23.6,21.4,81,56,37,30.33,30.06,10,1,10,0.00
2013-3-5,51.6,40.4,27.5,27.7,21.6,17.4,78,50,26,30.33,30.12,18,4,19,0.00
2013-3-6,49.6,42.4,33.8,36.7,30.4,23.0,72,62,51,30.12,29.80,12,3,12,0.00
2013-3-7,54.9,49.6,44.8,45.9,42.9,36.7,87,78,67,29.80,29.65,13,3,13,0.00
2013-3-8,56.3,49.9,46.6,49.5,46.9,44.4,96,89,73,29.68,29.59,11,3,11,0.00
2013-3-9,57.9,51.4,47.8,53.7,48.1,45.5,97,89,73,29.59,29.56,9,2,9,0.00
2013-3-10,57.4,50.7,46.6,51.7,46.1,42.5,97,85,62,29.56,29.47,10,2,10,0.00
2013-3-11,59.2,49.4,40.1,49.7,39.4,31.5,97,71,43,29.56,29.47,20,4,20,0.00
2013-3-12,55.8,47.9,37.8,43.2,34.8,29.8,86,61,47,29.56,29.44,18,4,18,0.00
2013-3-13,52.5,47.1,43.2,48.2,43.5,39.7,97,88,71,29.47,29.41,8,2,8,0.04
2013-3-14,44.8,37.5,28.9,43.3,36.4,28.2,97,96,91,29.47,29.26,20,5,20,0.63
2013-3-15,35.2,29.8,25.7,28.2,19.6,12.1,97,68,42,29.88,29.26,30,12,30,0.00
2013-3-16,37.0,31.5,25.7,17.0,14.3,7.6,67,50,34,30.15,29.88,20,7,22,0.04
2013-3-17,34.9,28.9,19.0,23.5,15.3,12.7,82,58,40,30.18,30.00,21,6,21,0.04
2013-3-18,36.9,32.9,28.6,36.1,25.1,13.5,97,74,52,30.00,29.38,21,8,21,1.93
2013-3-19,49.3,42.2,36.7,40.8,33.4,26.4,97,74,41,29.68,29.29,26,6,26,0.08
2013-3-20,57.9,48.3,35.6,39.0,33.4,28.3,79,58,36,29.77,29.68,13,2,14,0.04
2013-3-21,49.3,43.2,36.3,44.1,39.4,29.2,97,87,68,29.77,29.71,34,9,36,0.51
2013-3-22,45.1,37.8,30.7,29.2,24.3,19.7,75,59,48,29.94,29.74,35,13,35,0.04
2013-3-23,35.4,31.3,28.0,24.3,21.4,16.2,80,67,56,30.09,29.94,13,2,13,0.04
2013-3-24,34.9,28.7,22.3,14.8,7.3,4.7,55,41,31,30.18,30.06,15,6,15,0.04
2013-3-25,36.5,30.7,27.3,28.0,14.0,3.9,97,54,34,30.06,29.71,15,5,17,0.04
2013-3-26,33.8,29.5,26.6,28.9,26.6,23.9,97,89,77,29.77,29.68,12,5,12,0.04
2013-3-27,34.3,30.4,27.0,31.2,28.3,26.2,97,92,82,29.91,29.74,11,3,11,0.04
2013-3-28,37.0,34.1,32.2,32.9,28.2,22.4,97,80,56,30.03,29.91,16,3,16,0.98
2013-3-29,38.1,34.9,33.1,37.2,33.2,28.6,97,94,80,29.97,29.74,17,4,17,1.34
2013-3-30,46.9,40.3,34.0,42.0,37.0,33.2,97,89,70,29.74,29.56,12,3,12,0.28
2013-3-31,47.8,41.0,33.6,47.0,39.2,26.6,97,93,75,29.62,29.38,20,5,21,0.04
2013-4-1,45.3,38.4,33.1,26.6,24.1,21.7,75,57,41,29.88,29.62,21,7,22,0.04
2013-4-2,44.6,39.0,34.5,39.7,29.5,21.9,97,70,49,29.88,29.62,20,4,20,0.04
2013-4-3,45.0,41.4,39.4,43.9,40.4,37.5,97,96,93,29.74,29.59,14,4,14,0.04
2013-4-4,46.2,40.8,37.2,37.7,35.0,32.7,93,80,66,29.85,29.71,10,1,10,0.04
2013-4-5,44.1,40.5,35.8,41.2,37.1,32.7,96,88,74,29.85,29.62,16,3,16,0.00
2013-4-6,51.6,44.9,40.8,41.5,37.3,31.8,96,76,55,29.97,29.71,16,4,16,0.04
2013-4-7,47.5,42.3,37.4,39.3,34.0,28.4,89,73,55,30.00,29.91,12,3,12,0.00
2013-4-8,52.3,44.9,38.3,32.1,25.7,19.8,62,47,35,29.94,29.80,15,2,15,0.00
2013-4-9,52.3,46.8,41.5,41.0,37.6,32.1,88,71,54,29.83,29.77,13,4,13,0.00
2013-4-10,57.4,49.2,44.1,47.8,42.4,36.2,97,79,53,29.88,29.74,15,3,15,0.00
2013-4-11,65.7,54.4,38.3,43.5,39.2,33.9,89,59,37,29.94,29.83,19,3,19,0.00
2013-4-12,65.1,56.5,50.5,52.2,45.6,41.5,89,68,45,29.85,29.74,21,3,21,0.00
2013-4-13,65.3,55.6,46.9,47.2,41.9,34.8,90,63,36,30.21,29.83,37,6,37,0.00
2013-4-14,66.2,55.4,41.7,44.3,35.6,28.3,85,52,27,30.33,30.21,21,4,21,0.00
2013-4-15,63.9,54.0,38.8,43.4,35.2,30.6,87,52,33,30.36,30.24,10,2,10,0.00
2013-4-16,67.8,56.2,39.7,40.3,33.4,28.1,81,46,24,30.30,30.21,16,3,16,0.00
2013-4-17,71.4,58.6,42.3,43.7,37.6,31.1,79,50,23,30.27,30.18,10,2,10,0.00
2013-4-18,73.8,62.5,45.9,46.7,39.4,32.0,85,47,23,30.18,30.06,11,2,11,0.00
2013-4-19,75.6,63.8,46.4,46.2,38.0,32.3,78,43,21,30.12,30.00,12,2,12,0.00
2013-4-20,77.0,63.1,50.5,60.4,47.0,39.1,96,60,28,30.12,30.03,15,3,15,0.00
2013-4-21,71.2,62.5,53.1,48.6,42.6,37.9,72,50,33,30.12,29.97,15,5,15,0.00
2013-4-22,72.5,62.4,50.2,45.9,39.9,35.1,67,45,27,30.00,29.91,15,4,15,0.00
2013-4-23,72.5,63.3,51.1,52.2,46.9,42.7,82,57,35,30.21,30.00,10,2,10,0.00
2013-4-24,75.9,66.9,54.5,48.8,43.7,36.4,70,46,26,30.33,30.21,16,2,16,0.00
2013-4-25,79.0,67.0,49.8,49.5,43.7,37.2,81,47,23,30.27,30.15,13,2,13,0.00
2013-4-26,81.9,69.8,51.3,50.6,43.3,34.7,82,43,21,30.15,29.77,14,2,14,0.00
2013-4-27,78.4,71.0,61.7,50.1,45.5,40.0,50,40,31,29.77,29.71,12,3,12,0.00
2013-4-28,76.6,68.9,59.0,56.0,51.1,45.1,83,55,37,30.00,29.77,11,2,11,0.00
2013-4-29,82.0,71.3,57.6,54.3,49.4,45.0,81,49,30,30.09,30.00,12,2,12,0.00
2013-4-30,85.1,73.5,59.2,57.3,51.1,44.1,79,48,29,30.12,30.00,9,2,9,0.00
2013-5-1,84.0,74.9,64.4,57.3,51.4,47.5,65,45,30,30.12,30.03,10,2,10,0.00
2013-5-2,80.8,69.8,60.1,62.9,56.0,52.1,89,63,40,30.09,29.85,23,5,23,0.00
2013-5-3,76.8,65.6,59.5,64.4,58.8,52.7,96,79,56,29.91,29.83,20,4,20,0.00
2013-5-4,71.2,64.1,54.5,55.1,51.7,48.6,89,66,49,30.06,29.88,16,5,16,0.00
2013-5-5,76.5,66.4,53.8,57.7,52.3,47.7,93,63,39,30.18,30.06,10,3,10,0.00
2013-5-6,75.7,66.0,60.1,60.6,54.9,45.5,85,69,43,30.15,30.06,18,4,18,0.00
2013-5-7,71.4,65.0,59.4,61.5,58.7,55.5,96,81,59,30.09,29.97,21,5,22,0.00
2013-5-8,75.2,66.8,58.5,62.5,55.5,48.5,93,70,42,30.06,29.97,13,2,13,0.00
2013-5-9,77.4,67.9,57.0,60.5,53.0,47.5,92,63,37,30.06,30.00,11,2,11,0.00
2013-5-10,77.5,67.4,55.2,55.2,49.4,43.5,89,57,31,30.03,29.88,23,5,23,0.00
2013-5-12,56.7,56.7,56.5,47.0,47.0,46.8,70,70,70,29.83,29.83,21,8,21,0.00
2013-5-13,63.3,57.7,53.1,47.4,42.9,35.5,75,59,39,29.94,29.83,25,10,25,0.00
2013-5-14,64.2,57.5,49.6,48.7,43.6,38.1,79,61,47,29.94,29.88,15,5,15,0.00
2013-5-15,71.6,62.6,48.9,53.9,48.1,45.2,93,62,41,29.91,29.77,15,4,15,0.00
2013-5-16,73.8,65.1,51.4,55.3,51.0,47.5,90,62,42,29.83,29.68,26,8,26,0.00
2013-5-17,69.1,65.0,56.3,60.3,56.9,51.3,93,75,62,29.74,29.68,22,6,22,0.00
2013-5-18,73.0,65.3,55.4,58.7,51.4,42.4,97,66,34,29.94,29.71,12,3,12,0.00
2013-5-19,71.6,66.8,62.1,55.8,51.6,47.5,80,59,45,29.85,29.77,18,4,18,0.00
2013-5-20,70.2,64.5,57.6,57.6,49.2,40.9,92,60,37,29.97,29.83,12,3,12,0.00
2013-5-21,70.3,63.5,54.5,50.7,45.8,41.1,82,55,38,29.94,29.83,13,2,13,0.00
2013-5-22,67.3,60.6,53.1,53.5,48.2,43.2,82,65,46,29.83,29.68,11,2,11,0.00
2013-5-23,66.2,59.2,52.3,51.7,45.6,40.7,90,62,45,29.74,29.59,17,6,17,0.00
2013-5-24,67.1,59.0,51.1,47.5,44.1,41.6,75,59,44,29.74,29.62,12,3,12,0.00
2013-5-25,64.4,57.8,51.1,48.6,44.3,39.9,84,62,43,29.77,29.71,15,3,15,0.00
2013-5-26,63.5,56.0,50.7,52.6,44.2,35.2,91,67,39,29.77,29.71,21,5,21,0.00
2013-5-27,58.1,53.4,49.5,44.8,40.2,35.3,74,61,53,29.83,29.77,15,5,15,0.00
2013-5-28,68.2,58.6,50.4,52.2,46.3,42.7,79,65,44,29.83,29.68,13,3,13,0.00
2013-5-29,68.4,57.9,50.4,55.2,50.2,46.3,90,76,59,29.71,29.62,18,4,18,0.00
2013-5-30,62.8,59.0,53.4,60.8,54.9,48.4,96,86,73,29.53,29.44,9,2,9,0.00
2013-5-31,63.9,54.8,50.4,53.7,49.3,44.5,95,82,51,29.59,29.50,17,3,17,0.00
2013-6-1,66.7,56.4,46.4,59.8,48.5,45.4,97,77,48,29.68,29.59,16,2,16,0.00
2013-6-2,66.7,59.3,51.8,56.3,50.6,43.8,95,75,44,29.83,29.65,16,3,16,0.00
2013-6-3,64.0,58.2,53.1,52.8,50.4,47.5,90,76,62,29.88,29.83,26,10,26,0.00
2013-6-4,69.8,59.7,53.1,57.6,53.5,43.7,92,81,58,29.88,29.80,25,5,25,0.00
2013-6-5,69.1,61.6,55.2,60.7,56.8,53.5,96,85,64,30.00,29.88,10,1,10,0.00
2013-6-6,71.6,62.9,54.5,62.6,58.3,53.3,97,85,62,30.03,29.97,11,2,11,0.00
2013-6-7,77.7,66.9,58.1,64.3,57.2,51.2,97,74,42,30.00,29.94,16,4,16,0.00
2013-6-8,81.9,70.2,60.4,60.7,56.4,49.7,86,64,33,29.97,29.85,20,4,20,0.00
2013-6-9,81.5,72.3,58.1,63.0,56.8,51.1,95,62,39,29.88,29.77,14,2,14,0.00
2013-6-10,81.0,70.8,61.3,61.8,57.5,51.3,93,66,37,29.80,29.68,10,3,10,0.00
2013-6-11,71.2,63.6,57.9,62.3,57.6,50.9,95,81,60,29.85,29.74,13,3,14,0.00
2013-6-12,75.4,65.7,53.8,60.9,53.0,48.7,92,66,44,30.06,29.85,17,4,17,0.00
2013-6-13,79.0,70.9,60.1,56.5,50.4,45.2,71,50,32,30.06,29.97,15,5,15,0.00
2013-6-14,83.3,71.7,59.2,60.0,55.4,50.0,90,61,35,30.03,29.97,12,2,12,0.00
2013-6-23,85.8,77.8,69.3,65.1,61.8,58.0,81,60,41,29.83,29.80,14,4,15,0.00
2013-6-24,80.6,69.8,59.5,64.4,60.3,55.1,90,73,51,29.83,29.74,19,5,19,0.00
2013-6-25,61.3,59.1,57.2,57.7,54.7,50.8,93,85,79,29.94,29.77,23,5,23,0.00
2013-6-26,67.3,60.3,54.7,51.3,48.9,46.7,83,67,49,30.12,29.94,28,11,28,0.00
2013-6-27,69.4,60.3,54.5,55.0,50.7,46.5,84,71,50,30.12,30.03,16,5,16,0.00
2013-6-28,73.6,62.9,55.9,58.1,54.0,48.7,93,75,45,30.06,29.94,14,2,14,0.00
2013-6-29,75.9,66.8,57.9,61.1,52.9,43.3,95,65,32,29.97,29.88,15,4,15,0.00
2013-6-30,77.5,66.4,56.7,57.1,50.9,44.9,87,60,35,30.00,29.91,26,7,26,0.00
2013-7-1,74.3,66.6,53.8,49.9,44.4,38.5,72,46,33,30.06,30.00,18,6,18,0.00
2013-7-2,79.7,69.8,54.0,52.7,47.2,40.1,82,48,26,30.09,29.97,10,3,10,0.00
2013-7-3,83.5,72.9,56.5,54.4,49.8,44.3,82,48,28,30.00,29.88,17,3,17,0.00
2013-7-4,88.2,76.5,59.9,60.6,52.4,44.6,82,48,24,30.03,29.94,14,4,14,0.00
2013-7-5,82.2,75.5,66.2,64.1,57.3,50.8,80,55,36,30.12,30.03,19,4,20,0.00
2013-7-6,85.5,75.4,67.8,63.5,59.9,53.7,81,60,37,30.18,30.09,19,6,19,0.00
2013-7-7,85.5,77.5,68.2,60.9,58.1,53.0,73,53,34,30.21,30.15,15,5,15,0.00
2013-7-8,84.7,76.2,67.8,60.0,54.5,48.5,69,48,33,30.24,30.15,15,5,15,0.00
2013-7-9,84.9,75.4,66.0,57.1,52.9,48.1,65,47,31,30.18,30.00,15,4,15,0.00
2013-7-10,88.9,77.8,63.0,59.4,54.9,50.8,75,48,29,30.00,29.80,13,3,13,0.00
2013-7-11,77.7,71.8,64.4,60.5,54.9,46.5,77,56,41,29.91,29.77,23,6,23,0.00
2013-7-12,75.7,69.5,59.5,52.6,49.6,46.1,73,50,36,30.00,29.91,23,7,23,0.00
2013-7-13,78.1,70.0,61.0,54.7,50.8,47.6,72,52,36,30.00,29.97,22,6,22,0.00
2013-7-14,80.1,73.0,61.0,55.8,49.3,44.5,76,46,30,30.00,29.94,22,6,22,0.00
2013-7-15,79.0,70.0,62.1,57.3,50.6,44.5,72,52,31,30.06,29.94,26,6,26,0.00
2013-7-16,80.4,71.8,58.1,52.9,47.8,43.3,70,44,29,30.15,30.06,15,4,15,0.00
2013-7-17,84.9,74.7,58.6,56.9,51.8,47.3,79,48,29,30.15,30.06,12,3,12,0.00
2013-7-18,88.3,77.4,63.7,59.1,55.1,49.9,76,49,28,30.12,30.03,11,2,11,0.00
2013-7-19,80.1,71.6,68.9,61.5,58.3,53.9,76,64,46,30.06,29.94,7,1,8,0.00
2013-7-20,87.1,77.2,66.4,58.7,53.6,49.1,67,46,30,30.06,29.91,18,5,18,0.00
2013-7-21,81.5,74.2,63.9,53.8,47.2,43.5,61,39,30,30.12,30.06,18,4,18,0.00
2013-7-22,85.6,75.6,60.1,53.7,50.1,45.9,73,43,28,30.12,29.94,12,2,12,0.00
2013-7-23,89.2,78.5,64.0,55.9,49.5,42.5,70,40,21,29.94,29.85,17,4,17,0.00
2013-7-24,88.5,78.6,65.7,56.7,45.0,34.7,67,34,15,29.97,29.88,20,4,22,0.00
2013-7-25,81.3,74.3,63.1,59.0,52.6,42.2,63,47,37,30.00,29.91,10,2,10,0.00
2013-7-26,89.4,78.8,64.8,59.6,55.4,50.8,76,48,28,30.00,29.91,14,3,14,0.00
2013-7-27,93.7,82.2,66.0,62.5,57.8,53.0,75,47,28,29.97,29.88,8,2,8,0.00
2013-7-28,96.1,85.8,71.2,66.0,57.8,48.8,74,43,21,29.97,29.91,8,2,9,0.00
2013-7-29,97.9,87.1,70.7,63.5,57.9,47.2,71,40,26,29.97,29.83,20,2,20,0.00
2013-7-30,84.9,76.6,70.9,65.6,55.8,47.8,79,50,28,30.03,29.85,32,10,32,0.00
2013-7-31,86.4,78.5,66.9,58.5,52.8,49.3,67,43,29,30.06,29.97,20,6,20,0.00
2013-8-1,88.2,79.4,68.0,58.6,54.2,49.9,67,44,28,30.09,30.00,12,3,12,0.00
2013-8-2,91.6,81.1,64.9,62.0,55.8,51.0,79,45,26,30.09,29.97,9,2,9,0.00
2013-8-3,96.1,84.4,68.0,61.9,54.9,44.6,69,40,18,30.00,29.94,13,2,13,0.00
2013-8-4,93.2,84.3,72.5,63.3,55.7,49.2,66,40,24,30.12,30.00,15,4,15,0.00
2013-8-5,90.0,77.3,70.9,64.0,60.7,56.6,72,57,35,30.15,30.03,22,4,22,0.00
2013-8-6,95.9,84.4,68.9,62.3,57.4,49.3,70,43,21,30.06,29.94,11,2,11,0.00
2013-8-7,96.6,86.2,70.7,64.6,55.4,45.3,70,39,18,30.00,29.91,12,2,12,0.00
2013-8-8,99.5,87.4,70.7,62.9,55.1,45.4,67,37,16,30.00,29.91,17,2,17,0.00
2013-8-9,99.3,87.4,73.4,65.3,55.6,46.5,66,37,18,29.97,29.80,28,3,28,0.00
2013-8-10,77.5,72.7,68.9,64.9,59.6,54.3,74,64,51,29.97,29.88,24,8,24,0.00
2013-8-11,84.4,75.2,65.7,56.5,48.3,38.4,70,42,20,30.00,29.94,17,4,17,0.00
2013-8-12,87.3,76.7,63.1,58.8,50.8,42.6,71,43,23,30.06,29.94,12,3,12,0.00
2013-8-13,88.2,75.6,63.5,59.1,54.2,48.2,80,50,28,30.03,29.91,21,6,21,0.00
2013-8-14,76.1,69.4,64.0,61.6,52.8,42.9,82,58,32,30.15,30.00,18,4,18,0.00
2013-8-15,79.0,68.2,56.3,57.2,48.5,41.3,88,54,27,30.21,30.12,13,3,13,0.00
2013-8-16,82.4,70.4,56.3,51.5,45.2,38.8,72,44,24,30.18,30.06,10,3,10,0.00
2013-8-17,84.4,73.2,57.7,53.6,45.5,38.1,74,41,20,30.09,29.97,8,2,8,0.00
2013-8-18,88.5,76.5,58.6,54.4,46.8,40.2,75,40,19,30.06,29.97,9,1,9,0.00
2013-8-19,91.0,79.2,61.5,56.2,48.3,39.8,74,38,18,30.03,29.88,16,3,16,0.00
2013-8-20,79.9,73.4,67.8,61.6,59.3,50.1,76,62,41,30.12,29.91,22,8,22,0.00
2013-8-21,79.3,71.3,63.9,60.9,57.9,53.8,83,64,48,30.15,30.09,11,2,11,0.00
2013-8-22,79.2,71.2,60.1,59.2,54.1,48.0,84,57,36,30.12,30.00,15,2,15,0.00
2013-8-23,81.7,72.1,58.3,55.9,49.0,46.0,71,46,31,30.06,29.94,15,3,15,0.00
2013-8-24,80.1,70.7,60.8,52.1,49.1,45.9,70,48,32,30.00,29.88,14,4,14,0.00
2013-8-25,78.3,70.1,63.5,60.4,51.3,45.8,83,54,32,29.91,29.80,17,4,17,0.00
2013-8-26,70.5,65.7,61.9,64.9,60.6,58.5,95,84,69,29.91,29.85,12,3,12,0.00
2013-8-27,73.0,66.0,60.6,60.3,57.9,54.4,95,77,54,29.94,29.85,12,3,12,0.00
2013-8-28,67.1,62.7,59.2,64.1,58.9,56.7,97,88,78,29.91,29.85,11,3,11,0.00
2013-8-29,78.4,66.7,59.9,63.2,56.8,47.5,95,74,36,30.09,29.88,15,3,15,0.00
2013-8-30,75.0,65.9,58.5,59.9,54.3,46.8,93,69,39,30.09,30.03,17,2,17,0.00
2013-8-31,78.8,67.6,54.9,58.2,51.3,42.6,94,61,30,30.09,30.00,14,3,14,0.00
2013-9-1,77.7,68.1,59.4,58.5,52.4,45.3,80,58,45,30.15,30.00,22,6,22,0.00
2013-9-2,71.6,63.5,53.6,48.0,43.5,39.1,76,50,34,30.18,30.09,20,6,20,0.00
2013-9-3,73.6,66.2,60.1,57.9,51.0,43.6,78,58,42,30.21,30.00,27,10,27,0.00
2013-9-4,74.5,65.1,52.0,51.9,45.7,40.2,82,53,31,30.27,30.15,13,3,13,0.00
2013-9-5,76.5,64.4,51.3,51.5,46.4,42.7,82,56,31,30.15,30.00,16,3,16,0.00
2013-9-6,75.2,66.1,53.2,51.3,46.2,42.6,82,51,33,30.06,29.97,17,3,17,0.00
2013-9-7,77.2,66.4,52.5,51.4,46.2,41.6,84,52,31,30.15,30.03,9,2,9,0.00
2013-9-8,78.4,67.1,52.9,51.1,46.6,41.3,84,53,27,30.21,30.09,13,3,13,0.00
2013-9-9,60.1,58.8,56.8,57.1,56.3,54.8,94,91,89,30.06,30.06,4,0,4,0.00
2013-9-10,69.8,60.0,51.8,62.0,55.8,51.0,97,87,58,30.09,29.94,15,2,15,0.00
2013-9-11,65.7,59.6,55.4,59.2,53.6,44.4,97,82,51,29.94,29.88,17,3,17,0.00
2013-9-12,71.6,62.6,53.4,55.8,47.3,40.9,85,60,37,29.94,29.88,19,3,19,0.00
2013-9-13,68.2,60.6,55.6,50.3,47.4,43.8,77,63,45,29.97,29.91,19,6,19,0.00
2013-9-14,59.7,56.8,54.5,55.0,52.6,49.0,94,86,76,29.97,29.85,20,6,20,0.00
2013-9-15,73.4,63.9,52.2,59.2,54.5,50.5,94,73,52,29.91,29.74,10,1,10,0.00
2013-9-16,74.7,65.2,54.5,64.0,56.8,53.1,97,76,53,29.74,29.53,11,2,11,0.00
2013-9-17,61.2,56.1,49.6,59.8,49.7,39.3,96,79,65,29.65,29.41,46,8,46,0.00
2013-9-18,63.7,56.0,46.0,49.3,43.4,36.3,87,64,39,29.65,29.50,19,4,19,0.00
2013-9-19,58.3,56.2,52.0,52.0,49.6,44.0,82,78,73,29.88,29.53,12,3,12,0.00
2013-9-20,68.0,58.4,48.7,51.3,44.4,38.3,83,62,35,30.00,29.88,14,5,14,0.00
2013-9-21,68.0,60.0,53.1,52.7,49.8,46.7,84,70,48,30.21,29.97,20,6,20,0.00
2013-9-22,68.5,57.6,46.4,52.8,45.5,41.8,94,67,42,30.27,30.12,12,2,12,0.00
2013-9-23,67.1,60.9,54.7,54.4,50.3,44.3,77,68,58,30.15,29.91,29,10,29,0.00
2013-9-24,70.9,63.6,57.7,51.4,49.7,48.4,73,61,47,29.91,29.85,27,10,27,0.00
2013-9-25,66.2,60.5,53.6,52.7,48.2,43.6,84,65,51,29.97,29.85,15,5,16,0.00
2013-9-26,70.3,59.1,51.4,60.9,52.2,43.7,90,78,52,29.91,29.77,24,3,24,0.00
2013-9-27,58.8,52.5,45.1,52.0,44.9,40.4,93,77,52,30.06,29.91,13,2,13,0.00
2013-9-28,63.0,51.1,39.9,55.9,41.0,35.9,97,72,38,30.00,29.91,9,2,9,0.00
2013-9-29,60.3,52.3,42.6,43.0,38.0,34.7,90,61,39,29.97,29.88,21,6,21,0.00
2013-9-30,61.5,54.2,47.3,39.2,36.0,34.1,64,51,38,29.88,29.77,28,7,28,0.00
2013-10-1,63.0,54.8,49.6,40.8,36.9,34.9,64,51,38,29.94,29.77,16,5,16,0.00
2013-10-2,54.9,50.0,42.3,36.6,29.6,22.0,63,46,30,30.30,29.91,16,5,16,0.00
2013-10-3,51.8,43.9,35.8,25.1,22.6,19.0,62,44,29,30.47,30.30,18,5,18,0.00
2013-10-4,53.1,42.3,30.9,31.1,25.3,23.0,76,54,32,30.47,30.36,11,2,11,0.00
2013-10-5,57.6,44.6,29.5,32.0,26.4,23.2,79,52,28,30.39,30.18,18,4,18,0.00
2013-10-6,61.7,50.6,38.5,33.5,29.7,25.3,61,46,34,30.27,30.18,10,2,10,0.00
2013-10-7,61.3,54.7,49.3,42.7,40.6,38.0,75,60,44,30.30,30.27,5,2,6,0.00
2013-10-8,67.8,55.4,42.1,46.1,38.2,32.6,88,57,28,30.33,30.21,13,3,13,0.00
2013-10-9,62.1,55.1,46.4,48.8,41.3,34.8,79,60,45,30.21,29.97,14,4,14,0.00
2013-10-10,56.8,54.6,52.5,53.6,51.5,48.7,95,89,80,29.97,29.85,14,4,14,0.00
2013-10-11,70.2,61.4,54.0,55.6,53.7,52.3,97,78,54,30.06,29.91,24,4,24,0.00
2013-10-12,73.2,63.3,54.5,59.5,56.1,53.2,97,79,53,30.12,30.03,16,4,16,0.00
2013-10-13,69.6,60.3,51.4,65.7,54.0,46.0,97,82,48,30.15,30.06,12,1,12,0.00
2013-10-14,65.3,55.1,45.3,53.2,48.3,43.9,97,79,54,30.18,30.06,7,1,7,0.00
2013-10-15,66.4,56.5,48.2,60.9,51.0,45.5,97,83,60,30.06,29.77,13,2,13,0.00
2013-10-16,52.9,49.3,46.0,50.8,46.9,44.1,97,91,76,29.77,29.59,26,8,26,0.00
2013-10-17,62.2,55.2,50.0,50.4,43.2,38.4,79,65,44,29.94,29.74,24,8,24,0.00
2013-10-18,63.1,55.4,48.4,50.8,43.9,40.7,88,67,49,30.09,29.88,25,6,26,0.00
2013-10-19,56.3,49.6,42.8,45.8,40.2,37.8,91,71,51,30.24,30.09,16,4,16,0.00
2013-10-20,65.3,54.4,43.9,50.5,45.0,39.1,89,72,51,30.21,30.06,11,3,11,0.00
2013-10-21,69.6,58.6,50.5,57.4,51.5,48.0,94,79,54,30.12,30.03,7,1,7,0.00
2013-10-22,66.0,57.8,49.3,57.9,53.7,47.6,97,87,72,30.12,30.06,10,3,12,0.00
2013-10-23,74.5,65.9,58.5,61.3,55.1,52.2,94,71,46,30.06,29.94,14,3,14,0.00
2013-10-24,72.1,63.7,54.5,56.8,54.7,51.6,93,74,53,30.15,30.03,9,1,9,0.00
2013-10-25,73.2,62.9,51.1,59.7,54.6,50.0,97,76,51,30.18,30.09,10,2,10,0.00
2013-10-26,71.6,60.3,49.6,57.0,52.6,47.7,94,77,54,30.12,30.06,6,1,6,0.00
2013-10-27,70.0,58.4,48.9,61.5,52.9,47.8,97,83,59,30.09,29.88,17,1,17,0.00
2013-10-28,69.8,64.6,57.9,58.0,53.8,48.6,81,68,54,30.00,29.85,14,3,15,0.00
2013-10-29,69.3,60.7,52.9,56.9,52.3,43.1,94,75,51,30.03,29.85,11,2,11,0.00
2013-10-30,64.8,56.1,49.6,54.1,45.1,38.9,90,68,49,30.27,30.00,15,4,15,0.00
2013-10-31,60.6,51.4,42.6,44.3,38.1,31.7,85,62,35,30.33,30.24,9,2,9,0.00
2013-11-1,57.7,50.6,43.9,47.4,42.7,38.0,86,75,60,30.27,30.06,8,2,8,0.00
2013-11-2,62.2,55.8,49.5,54.9,51.0,46.9,95,84,69,30.06,29.83,12,2,12,0.00
2013-11-3,61.7,54.1,50.2,59.0,50.8,40.8,97,89,68,29.85,29.59,30,4,30,0.00
2013-11-4,52.9,49.9,43.5,50.1,43.8,39.4,95,80,62,29.88,29.50,14,3,14,0.00
2013-11-5,54.3,50.5,46.2,53.5,48.7,38.9,97,94,76,29.50,29.41,19,4,19,0.00
2013-11-6,55.4,48.3,40.5,42.2,37.9,33.2,81,68,52,29.83,29.44,26,4,26,0.00
2013-11-7,58.6,52.9,47.1,49.2,45.2,39.2,92,76,62,29.97,29.83,12,3,12,0.00
2013-11-8,57.9,50.0,42.4,51.7,46.9,41.1,97,90,75,30.00,29.91,7,2,7,0.00
2013-11-9,58.5,52.8,48.7,53.7,48.9,46.9,97,87,73,29.91,29.83,16,4,16,0.00
2013-11-10,59.2,51.5,47.5,48.5,44.3,40.5,95,77,55,29.83,29.71,12,3,12,0.00
2013-11-11,53.6,51.0,48.0,47.7,41.9,36.9,97,72,58,30.24,29.77,14,7,14,0.00
2013-11-12,56.7,51.7,47.1,44.0,38.7,33.2,77,61,49,30.27,30.21,12,4,12,0.00
2013-11-13,51.6,48.6,45.3,48.8,43.8,40.3,90,83,77,30.24,30.18,15,3,15,0.00
2013-11-14,46.4,45.1,43.2,44.2,40.5,37.4,97,84,72,30.24,30.09,7,2,7,0.00
2013-11-15,49.1,46.7,44.4,40.3,38.4,36.3,79,73,69,30.33,30.09,0,0,0,0.00
2013-11-16,57.2,48.1,40.6,48.4,41.7,38.2,94,79,56,30.36,30.27,5,1,5,0.00
2013-11-17,46.2,41.7,35.1,45.4,40.6,34.3,97,96,92,30.27,30.18,6,1,6,0.00
2013-11-18,44.8,41.9,40.3,43.4,41.1,39.5,97,97,94,30.18,30.03,14,5,14,0.00
2013-11-19,45.7,43.4,40.3,42.2,40.0,37.7,97,88,76,30.03,29.71,21,6,21,0.00
2013-11-20,50.9,47.6,43.7,48.1,43.5,39.5,97,86,73,29.71,29.53,13,3,13,0.00
2013-11-21,47.3,43.3,38.7,46.5,42.5,37.9,97,97,96,29.65,29.56,13,2,13,0.00
2013-11-22,50.9,47.8,45.9,48.4,46.4,44.2,97,95,90,29.74,29.59,12,3,12,0.00
2013-11-23,53.8,48.4,44.1,47.5,44.6,42.7,96,87,75,29.74,29.68,12,4,12,0.00
2013-11-24,48.7,46.9,43.0,46.5,44.5,41.5,97,92,78,29.68,29.65,12,3,12,0.00
2013-11-25,42.8,38.1,36.0,42.0,28.8,21.7,97,70,52,30.00,29.65,25,10,27,0.00
2013-11-26,39.7,35.7,32.0,29.2,25.1,22.5,76,66,53,30.18,30.00,13,4,13,0.00
2013-11-27,40.5,33.9,27.3,25.1,19.2,15.4,75,56,38,30.39,30.18,12,4,12,0.00
2013-11-28,39.2,32.5,23.2,30.9,22.8,16.6,88,69,40,30.39,30.18,20,4,20,0.00
2013-11-29,49.1,39.8,36.0,33.3,30.3,28.5,78,69,51,30.18,30.00,24,7,24,0.00
2013-11-30,41.2,36.5,30.9,30.2,28.8,26.8,88,73,62,30.24,29.94,10,3,10,0.00
2013-12-1,45.1,36.1,26.2,35.6,28.3,24.5,95,75,52,30.30,30.21,20,3,20,0.00
2013-12-2,52.0,41.2,36.1,35.3,29.1,21.1,81,63,49,30.56,30.21,24,5,24,0.00
2013-12-3,44.1,34.2,27.0,31.2,22.5,20.0,84,63,45,30.56,30.42,8,2,8,0.00
2013-12-4,34.5,26.7,22.3,33.4,24.3,18.5,97,91,77,30.42,30.12,16,2,16,0.00
2013-12-5,42.1,37.8,34.3,34.3,28.6,25.7,97,70,54,30.21,29.83,24,5,24,0.00
2013-12-6,46.2,39.1,35.6,36.5,25.6,20.6,84,59,43,29.83,29.65,42,11,42,0.00
2013-12-7,38.7,35.9,33.8,29.3,22.9,18.3,81,59,45,30.15,29.83,38,13,38,0.00
2013-12-8,43.3,39.6,35.6,35.0,31.7,25.5,80,73,64,30.30,30.15,14,4,14,0.00
2013-12-9,46.9,44.4,39.6,39.5,35.7,28.6,80,72,54,30.24,30.09,30,7,30,0.00
2013-12-10,45.0,36.8,28.2,39.3,27.2,19.0,85,69,53,30.68,30.21,16,5,16,0.00
2013-12-11,37.4,32.0,26.6,25.6,20.9,17.5,76,64,45,30.68,30.53,7,2,7,0.00
2013-12-12,36.1,34.5,32.5,31.7,28.6,24.5,88,79,70,30.53,30.36,5,0,5,0.00
2013-12-13,34.3,32.4,30.0,31.4,29.7,27.7,94,90,87,30.36,30.27,0,0,0,0.00
2013-12-14,33.3,31.5,29.5,31.5,28.7,27.4,96,89,83,30.42,30.30,0,0,0,0.00
2013-12-15,36.7,33.8,31.8,34.6,32.0,28.2,97,93,85,30.53,30.39,0,0,0,0.00
2013-12-16,35.2,33.9,32.5,34.5,33.0,31.6,97,96,94,30.62,30.50,9,1,9,0.00
2013-12-17,33.3,32.4,30.4,32.5,31.3,29.6,97,96,92,30.62,30.47,11,3,11,0.00
2013-12-18,32.4,30.0,28.4,30.8,28.5,26.1,97,94,91,30.47,30.27,12,4,12,0.00
2013-12-19,30.2,28.7,27.0,29.5,27.1,24.6,97,94,90,30.27,30.12,15,6,15,0.00
2013-12-20,32.0,29.6,28.4,31.2,28.9,27.5,97,97,97,30.42,30.18,12,4,12,0.00
2013-12-21,44.2,35.8,30.0,36.3,31.3,25.9,97,84,67,30.56,30.42,11,4,12,0.00
2013-12-22,33.4,32.1,31.1,32.5,31.1,30.1,97,96,94,30.53,30.30,11,3,11,0.00
2013-12-23,38.8,35.9,32.7,37.3,34.8,32.0,97,96,93,30.30,30.24,8,2,8,0.00
2013-12-24,39.9,36.5,32.4,39.1,35.5,31.6,97,96,94,30.15,29.53,12,3,12,0.00
2013-12-25,49.3,38.7,30.0,37.5,32.0,29.3,97,78,55,30.00,29.77,11,2,11,0.00
2013-12-26,47.1,41.5,35.8,44.3,37.1,30.7,91,84,74,29.77,29.62,11,3,11,0.00
2013-12-27,53.1,45.7,38.7,46.5,40.7,35.3,94,83,70,30.00,29.68,11,3,11,0.00
2013-12-28,43.3,37.8,32.9,42.5,36.6,32.1,97,96,91,30.03,29.97,7,2,7,0.00
2013-12-29,46.0,40.9,32.5,44.9,38.7,31.8,97,92,70,30.21,29.94,15,3,15,0.00
2013-12-30,47.1,43.4,39.7,41.5,38.1,35.2,92,81,69,30.36,30.18,11,2,11,0.00
2013-12-31,40.1,38.2,36.5,38.4,35.4,31.1,97,90,77,30.30,30.21,13,5,13,0.00
2014-1-1,39.7,37.4,36.0,36.5,33.4,31.5,92,85,80,30.21,30.12,13,2,13,0.00
2014-1-2,42.3,38.3,35.2,36.5,34.4,31.5,96,86,74,30.12,29.94,0,0,0,0.00